Time;durP1;ratioP1;P1;durP2;ratioP2;P2;SDS_P1;SDS_P2;PMS_P1;PMS_P2;Temp;Humidity;BMP_temperature;BMP_pressure;BME280_temperature;BME280_humidity;BME280_pressure;Samples;Min_cycle;Max_cycle;Signal;HPM_P1;HPM_P2
2022/12/10 00:02:18;;;;;;;80.20;38.78;;;;;;;1.15;100.00;98957.59;10483044;28;20067;-69
2022/12/10 00:07:19;;;;;;;78.75;40.38;;;;;;;1.23;98.75;98950.56;10500193;28;20089;-69
2022/12/10 00:12:21;;;;;;;85.13;42.15;;;;;;;1.07;99.89;98943.00;10500182;28;20040;-69
2022/12/10 00:17:23;;;;;;;90.32;42.58;;;;;;;0.99;100.00;98937.91;10481588;28;20049;-69
2022/12/10 00:22:24;;;;;;;88.95;41.00;;;;;;;0.91;100.00;98948.34;10500103;28;20044;-69
2022/12/10 00:27:26;;;;;;;84.97;40.35;;;;;;;1.11;99.30;98942.09;10482839;28;20044;-69
2022/12/10 00:32:29;;;;;;;90.15;40.38;;;;;;;1.07;99.52;98949.03;10499363;28;20095;-70
2022/12/10 00:37:32;;;;;;;90.05;42.25;;;;;;;1.04;99.43;98949.06;10499632;28;20060;-69
2022/12/10 00:42:34;;;;;;;80.57;41.40;;;;;;;0.93;100.00;98956.94;10481876;28;20114;-69
2022/12/10 00:47:36;;;;;;;71.93;36.97;;;;;;;1.09;99.68;98954.19;10480845;28;20056;-69
2022/12/10 00:52:37;;;;;;;75.32;39.80;;;;;;;1.10;98.89;98953.31;10480737;28;20049;-69
2022/12/10 00:57:39;;;;;;;82.65;39.53;;;;;;;1.11;98.49;98953.31;10498895;28;20036;-69
2022/12/10 01:02:41;;;;;;;81.93;38.28;;;;;;;1.00;98.92;98952.56;10498794;28;20044;-69
2022/12/10 01:07:42;;;;;;;75.38;37.70;;;;;;;0.90;98.59;98958.72;10480568;28;20105;-68
2022/12/10 01:12:45;;;;;;;82.90;39.08;;;;;;;0.87;100.00;98959.59;10481002;28;20056;-69
2022/12/10 01:17:47;;;;;;;73.55;36.28;;;;;;;0.92;99.44;98957.81;10480019;28;20044;-68
2022/12/10 01:22:49;;;;;;;81.88;39.63;;;;;;;0.78;100.00;98964.00;10481004;28;20040;-69
2022/12/10 01:27:51;;;;;;;81.40;38.08;;;;;;;0.74;100.00;98964.00;10498771;28;20501;-69
2022/12/10 01:32:52;;;;;;;81.22;38.10;;;;;;;0.77;100.00;98970.03;10499166;28;20044;-69
2022/12/10 01:37:54;;;;;;;85.97;40.40;;;;;;;0.79;100.00;98973.47;10479610;28;20040;-69
2022/12/10 01:42:56;;;;;;;86.57;39.35;;;;;;;0.77;100.00;98978.66;10466465;28;20055;-69
2022/12/10 01:48:01;;;;;;;85.90;39.08;;;;;;;0.66;100.00;98981.31;10488329;28;20052;-69
2022/12/10 01:53:09;;;;;;;83.15;39.38;;;;;;;0.70;100.00;98979.56;10488403;28;20151;-69
2022/12/10 01:58:13;;;;;;;78.28;38.20;;;;;;;0.81;100.00;98976.91;10500245;23;20071;-70
2022/12/10 02:03:24;;;;;;;85.53;39.58;;;;;;;0.74;100.00;98979.53;10506512;28;20490;-70
2022/12/10 02:08:36;;;;;;;84.45;37.53;;;;;;;0.94;100.00;98974.19;10488699;28;20052;-70
2022/12/10 02:13:56;;;;;;;81.13;39.40;;;;;;;0.80;100.00;98973.47;10509255;28;20052;-70
2022/12/10 02:19:43;;;;;;;78.38;38.45;;;;;;;0.82;100.00;98965.69;10514733;28;20063;-70
2022/12/10 02:24:50;;;;;;;79.22;37.78;;;;;;;0.81;100.00;98970.00;10427699;28;20520;-70
2022/12/10 02:29:55;;;;;;;79.13;37.93;;;;;;;0.89;100.00;98972.53;10494558;28;20040;-70
2022/12/10 02:35:02;;;;;;;74.68;36.22;;;;;;;0.76;100.00;98966.59;10493341;28;20044;-70
2022/12/10 02:40:17;;;;;;;78.47;38.20;;;;;;;0.71;100.00;98969.22;10488846;28;20414;-69
2022/12/10 02:45:26;;;;;;;69.47;34.85;;;;;;;0.89;99.60;98964.75;10487256;28;20040;-70
2022/12/10 02:50:29;;;;;;;76.20;35.60;;;;;;;0.66;100.00;98968.41;10486475;28;20493;-71
2022/12/10 02:55:59;;;;;;;69.45;35.10;;;;;;;0.68;100.00;98968.41;10486729;28;20532;-71
2022/12/10 03:01:23;;;;;;;66.70;33.08;;;;;;;0.78;99.71;98967.44;10486731;28;20044;-72
2022/12/10 03:06:38;;;;;;;63.15;32.75;;;;;;;0.74;100.00;98976.94;10487554;28;20132;-71
2022/12/10 03:11:43;;;;;;;62.45;33.38;;;;;;;0.84;99.30;98975.16;10485970;28;20053;-71
2022/12/10 03:16:57;;;;;;;60.30;31.98;;;;;;;0.92;99.13;98988.84;10503186;28;20040;-70
2022/12/10 03:22:03;;;;;;;61.67;30.80;;;;;;;0.81;99.16;98989.84;10504513;28;20033;-70
2022/12/10 03:27:07;;;;;;;63.40;32.25;;;;;;;0.70;99.89;98982.16;10486300;28;20067;-71
2022/12/10 03:32:08;;;;;;;70.80;35.40;;;;;;;0.79;98.82;98982.06;10485576;28;20056;-71
2022/12/10 03:37:12;;;;;;;58.88;32.47;;;;;;;0.84;99.03;98992.38;10503917;28;20048;-69
2022/12/10 03:42:14;;;;;;;69.82;32.95;;;;;;;0.82;98.57;98991.56;10487651;28;20055;-69
2022/12/10 03:47:15;;;;;;;68.05;34.50;;;;;;;0.75;99.37;98993.31;10503756;28;20062;-70
2022/12/10 03:52:17;;;;;;;65.82;34.00;;;;;;;0.71;100.00;98984.75;10502922;28;20401;-70
2022/12/10 03:57:19;;;;;;;68.18;33.90;;;;;;;0.79;98.95;98982.06;10485313;28;20158;-70
2022/12/10 04:02:21;;;;;;;73.57;36.10;;;;;;;0.73;99.35;98979.56;10484654;28;20044;-70
2022/12/10 04:07:22;;;;;;;65.43;34.05;;;;;;;0.90;98.69;98980.25;10502844;28;20043;-70
2022/12/10 04:12:24;;;;;;;70.38;35.58;;;;;;;0.78;98.47;98982.97;10502226;28;20048;-71
2022/12/10 04:17:26;;;;;;;66.30;34.30;;;;;;;0.70;99.85;98982.16;10501281;28;20040;-70
2022/12/10 04:27:48;;;;;;;72.93;33.33;;;;;;;0.70;100.00;98984.75;10501413;28;20433;-71
2022/12/10 04:32:49;;;;;;;73.82;34.33;;;;;;;0.66;99.79;98981.31;10500408;28;20052;-71
2022/12/10 04:37:51;;;;;;;71.88;33.25;;;;;;;0.71;100.00;98983.91;10499699;28;20579;-70
2022/12/10 04:42:53;;;;;;;64.32;32.97;;;;;;;0.54;100.00;98983.19;10500303;28;20093;-71
2022/12/10 04:47:54;;;;;;;68.15;32.28;;;;;;;0.74;100.00;98979.53;10499352;28;20086;-71
2022/12/10 04:52:58;;;;;;;66.28;32.20;;;;;;;0.70;100.00;98979.56;10498773;28;20036;-71
2022/12/10 04:57:59;;;;;;;65.18;32.63;;;;;;;0.57;100.00;98973.66;10498809;28;20097;-70
2022/12/10 05:03:01;;;;;;;62.20;31.13;;;;;;;0.49;100.00;98976.31;10481219;28;20093;-71
2022/12/10 05:08:04;;;;;;;65.28;32.33;;;;;;;0.59;100.00;98968.47;10500607;28;20112;-71
2022/12/10 05:13:05;;;;;;;58.00;30.30;;;;;;;0.60;100.00;98978.81;10481265;28;20098;-71
2022/12/10 05:18:07;;;;;;;63.38;31.23;;;;;;;0.72;100.00;98976.13;10499133;28;20045;-70
2022/12/10 05:28:36;;;;;;;63.60;32.03;;;;;;;0.63;100.00;98972.75;10500011;28;20063;-72
2022/12/10 05:33:38;;;;;;;56.95;30.20;;;;;;;0.66;100.00;98970.13;10499114;28;20048;-71
2022/12/10 05:38:41;;;;;;;63.33;30.88;;;;;;;0.69;100.00;98975.28;10498996;28;20044;-71
2022/12/10 05:43:44;;;;;;;58.33;30.77;;;;;;;0.72;100.00;98975.25;10499966;28;20045;-71
2022/12/10 05:48:46;;;;;;;62.53;29.85;;;;;;;0.69;100.00;98989.06;10479887;28;20401;-70
2022/12/10 05:53:48;;;;;;;65.13;31.10;;;;;;;0.68;100.00;98986.50;10496882;28;20044;-71
2022/12/10 05:58:52;;;;;;;67.80;32.92;;;;;;;0.45;100.00;98990.13;10497709;28;20535;-71
2022/12/10 06:03:54;;;;;;;71.00;32.28;;;;;;;0.66;100.00;98985.66;10500246;28;20071;-71
2022/12/10 06:08:56;;;;;;;68.45;33.25;;;;;;;0.45;100.00;98989.28;10483711;28;20041;-71
2022/12/10 06:13:59;;;;;;;69.45;31.33;;;;;;;0.46;100.00;98997.03;10483573;28;20094;-71
2022/12/10 06:19:01;;;;;;;67.55;30.50;;;;;;;0.64;100.00;98998.59;10500347;28;20071;-70
2022/12/10 06:24:03;;;;;;;65.43;32.38;;;;;;;0.67;100.00;98997.72;10499211;28;20106;-71
2022/12/10 06:29:04;;;;;;;65.90;32.20;;;;;;;0.42;100.00;99008.25;10499852;28;20075;-71
2022/12/10 06:34:06;;;;;;;71.18;34.75;;;;;;;0.33;100.00;99010.06;10508397;28;20470;-71
2022/12/10 06:39:08;;;;;;;72.90;32.85;;;;;;;0.34;100.00;99012.63;10506394;28;20040;-70
2022/12/10 06:44:10;;;;;;;73.60;34.17;;;;;;;0.47;100.00;99022.00;10506735;28;20072;-71
2022/12/10 06:49:12;;;;;;;67.88;32.88;;;;;;;0.53;100.00;99017.66;10506806;28;20088;-71
2022/12/10 06:54:14;;;;;;;72.53;33.72;;;;;;;0.30;100.00;99018.66;10506685;28;20414;-71
2022/12/10 06:59:16;;;;;;;70.00;33.35;;;;;;;0.33;100.00;99026.41;10505382;28;20059;-71
2022/12/10 07:04:17;;;;;;;74.85;34.60;;;;;;;0.25;100.00;99036.78;10504920;28;20040;-72
2022/12/10 07:09:19;;;;;;;69.63;32.15;;;;;;;0.33;100.00;99033.31;10506729;28;20036;-71
2022/12/10 07:14:21;;;;;;;66.97;32.20;;;;;;;0.29;100.00;99035.06;10506655;28;20382;-71
2022/12/10 07:19:23;;;;;;;69.38;33.78;;;;;;;0.31;100.00;99033.34;10504840;28;20050;-71
2022/12/10 07:24:25;;;;;;;68.85;34.22;;;;;;;0.29;100.00;99036.78;10506296;28;20517;-72
2022/12/10 07:29:27;;;;;;;73.85;33.40;;;;;;;0.21;100.00;99045.44;10510660;28;20054;-72
2022/12/10 07:34:29;;;;;;;81.03;34.35;;;;;;;0.14;100.00;99038.59;10508988;28;20131;-71
2022/12/10 07:39:31;;;;;;;72.25;32.38;;;;;;;0.22;100.00;99042.00;10507263;28;20456;-70
2022/12/10 07:44:33;;;;;;;73.55;32.13;;;;;;;0.47;100.00;99047.84;10507618;28;20040;-72
2022/12/10 07:49:36;;;;;;;75.55;33.60;;;;;;;0.33;100.00;99044.50;10506591;28;20044;-71
2022/12/10 07:54:38;;;;;;;76.60;33.50;;;;;;;0.29;100.00;99047.13;10506136;28;20048;-71
2022/12/10 07:59:39;;;;;;;89.80;39.35;;;;;;;0.13;100.00;99051.50;10548270;22;20048;-70
2022/12/10 08:04:41;;;;;;;88.35;38.25;;;;;;;0.10;100.00;99056.72;10543458;28;20050;-70
2022/12/10 08:09:43;;;;;;;80.65;36.05;;;;;;;0.17;100.00;99053.22;10542804;28;20042;-70
2022/12/10 08:14:45;;;;;;;76.40;35.28;;;;;;;0.22;100.00;99048.88;10543242;28;20550;-70
2022/12/10 08:19:47;;;;;;;80.85;36.95;;;;;;;0.36;100.00;99060.00;10544224;28;20036;-71
2022/12/10 08:24:49;;;;;;;79.90;35.78;;;;;;;0.32;100.00;99062.63;10523517;28;20501;-70
2022/12/10 08:29:51;;;;;;;83.10;36.53;;;;;;;0.39;100.00;99059.97;10541644;28;20385;-70
2022/12/10 08:34:52;;;;;;;71.30;34.90;;;;;;;0.51;100.00;99071.97;10541205;28;20093;-70
2022/12/10 08:39:54;;;;;;;76.65;34.90;;;;;;;0.56;100.00;99067.63;10539932;28;20051;-68
2022/12/10 08:44:58;;;;;;;75.32;35.83;;;;;;;0.52;100.00;99070.22;10543300;28;20043;-68
2022/12/10 08:50:00;;;;;;;78.88;35.67;;;;;;;0.56;100.00;99071.94;10541203;28;20105;-68
2022/12/10 08:55:02;;;;;;;77.15;34.47;;;;;;;0.58;100.00;99075.38;10539288;28;20048;-69
2022/12/10 09:00:06;;;;;;;77.00;35.33;;;;;;;0.50;100.00;99084.03;10540654;28;20040;-69
2022/12/10 09:05:08;;;;;;;72.38;32.40;;;;;;;0.44;100.00;99089.25;10541705;28;20071;-67
2022/12/10 09:10:13;;;;;;;76.07;32.72;;;;;;;0.45;100.00;99090.97;10524327;28;20051;-68
2022/12/10 09:15:15;;;;;;;75.47;34.60;;;;;;;0.15;100.00;99097.16;10524819;28;20048;-67
2022/12/10 09:20:17;;;;;;;79.80;36.35;;;;;;;0.32;100.00;99096.22;10542708;28;20181;-68
2022/12/10 09:25:21;;;;;;;77.00;34.72;;;;;;;0.33;100.00;99095.34;10526148;28;20056;-69
2022/12/10 09:30:22;;;;;;;85.22;36.60;;;;;;;0.42;100.00;99092.72;10541468;28;20044;-67
2022/12/10 09:35:24;;;;;;;93.30;36.35;;;;;;;0.28;100.00;99100.53;10530796;28;20040;-69
2022/12/10 09:40:41;;;;;;;79.72;37.15;;;;;;;0.29;100.00;99098.81;10539643;28;20036;-67
2022/12/10 09:45:51;;;;;;;73.07;34.15;;;;;;;0.27;100.00;99097.94;10539817;28;20039;-67
2022/12/10 09:51:02;;;;;;;80.50;35.20;;;;;;;0.22;100.00;99090.22;10539696;28;20032;-67
2022/12/10 09:56:06;;;;;;;79.65;35.28;;;;;;;0.20;100.00;99090.25;10538384;28;20520;-68
2022/12/10 10:01:14;;;;;;;74.95;34.60;;;;;;;0.32;100.00;99091.91;10539268;28;20064;-69
2022/12/10 10:06:16;;;;;;;79.40;35.97;;;;;;;0.18;100.00;99080.78;10527824;28;20074;-67
2022/12/10 10:11:30;;;;;;;83.18;36.80;;;;;;;0.15;100.00;99083.38;10530025;28;20097;-68
2022/12/10 10:16:47;;;;;;;87.43;39.17;;;;;;;0.10;100.00;99078.25;10543725;28;20097;-67
2022/12/10 10:21:51;;;;;;;80.43;37.30;;;;;;;0.02;100.00;99082.59;10545514;28;20040;-67
2022/12/10 10:26:57;;;;;;;79.07;38.05;;;;;;;0.03;100.00;99073.09;10544926;28;20040;-67
2022/12/10 10:32:18;;;;;;;79.50;39.27;;;;;;;0.05;100.00;99081.72;10546693;28;20039;-67
2022/12/10 10:37:25;;;;;;;84.50;37.85;;;;;;;-0.06;100.00;99081.75;10545233;28;20055;-68
2022/12/10 10:42:40;;;;;;;71.30;35.95;;;;;;;-0.10;100.00;99080.03;10545579;28;20040;-68
2022/12/10 10:47:42;;;;;;;70.53;37.08;;;;;;;0.01;100.00;99072.28;10545239;28;20044;-67
2022/12/10 10:52:43;;;;;;;72.38;37.45;;;;;;;-0.09;100.00;99074.91;10546160;28;20047;-67
2022/12/10 10:57:45;;;;;;;74.22;37.25;;;;;;;-0.10;100.00;99067.97;10544562;28;20036;-68
2022/12/10 11:02:47;;;;;;;62.70;33.83;;;;;;;-0.27;100.00;99073.25;10544414;28;20040;-68
2022/12/10 11:07:59;;;;;;;67.18;34.90;;;;;;;-0.08;100.00;99074.03;10527607;28;20131;-68
2022/12/10 11:13:18;;;;;;;56.50;33.50;;;;;;;0.01;100.00;99069.69;10527098;28;20044;-68
2022/12/10 11:18:32;;;;;;;52.00;30.50;;;;;;;0.12;100.00;99079.09;10543378;28;20408;-68
2022/12/10 11:23:43;;;;;;;58.55;31.48;;;;;;;0.01;100.00;99074.84;10543618;28;20123;-68
2022/12/10 11:28:58;;;;;;;52.22;30.73;;;;;;;-0.06;100.00;99077.44;10542119;28;20040;-68
2022/12/10 11:34:30;;;;;;;46.58;28.13;;;;;;;-0.07;100.00;99080.91;10542023;28;20444;-69
2022/12/10 11:40:13;;;;;;;51.13;30.58;;;;;;;-0.11;100.00;99074.03;10527048;28;20032;-68
2022/12/10 11:45:30;;;;;;;57.30;32.75;;;;;;;-0.12;100.00;99079.22;10546112;28;20040;-68
2022/12/10 11:50:43;;;;;;;60.88;33.83;;;;;;;-0.16;100.00;99080.09;10544140;28;20051;-69
2022/12/10 11:56:32;;;;;;;60.47;33.35;;;;;;;-0.17;100.00;99081.81;10541410;28;20497;-68
2022/12/10 12:02:03;;;;;;;63.20;33.55;;;;;;;-0.10;100.00;99080.03;10519883;28;20052;-68
2022/12/10 12:07:45;;;;;;;58.78;32.92;;;;;;;-0.14;100.00;99080.91;10541838;28;20097;-68
2022/12/10 12:12:59;;;;;;;52.75;31.52;;;;;;;-0.09;100.00;99085.22;10507878;28;20052;-68
2022/12/10 12:18:11;;;;;;;52.72;30.67;;;;;;;-0.13;100.00;99072.34;10541620;28;20040;-68
2022/12/10 12:23:16;;;;;;;59.45;31.23;;;;;;;-0.02;100.00;99084.31;10543428;28;20409;-68
2022/12/10 12:28:26;;;;;;;49.75;29.25;;;;;;;0.06;100.00;99076.53;10540476;28;20075;-68
2022/12/10 12:33:41;;;;;;;42.45;29.15;;;;;;;0.05;100.00;99081.72;10540317;28;20051;-68
2022/12/10 12:38:42;;;;;;;48.47;29.23;;;;;;;-0.09;100.00;99077.47;10540262;28;20485;-68
2022/12/10 12:44:08;;;;;;;48.22;29.98;;;;;;;-0.10;100.00;99075.72;10543245;28;20207;-68
2022/12/10 12:49:33;;;;;;;40.97;27.88;;;;;;;-0.04;100.00;99070.56;10539772;28;20089;-68
2022/12/10 12:54:36;;;;;;;41.97;27.90;;;;;;;-0.13;100.00;99070.59;10539735;28;20052;-68
2022/12/10 12:59:53;;;;;;;52.85;30.48;;;;;;;-0.19;100.00;99073.19;10539449;28;20100;-69
2022/12/10 13:04:55;;;;;;;51.97;30.70;;;;;;;-0.03;100.00;99077.44;10524892;28;20055;-69
2022/12/10 13:10:05;;;;;;;49.15;29.95;;;;;;;-0.14;100.00;99070.59;10541850;28;20093;-68
2022/12/10 13:15:31;;;;;;;46.28;29.65;;;;;;;-0.07;100.00;99085.22;10541569;28;20044;-69
2022/12/10 13:20:53;;;;;;;45.60;28.25;;;;;;;-0.10;100.00;99090.38;10540233;28;20036;-69
2022/12/10 13:25:58;;;;;;;40.15;26.88;;;;;;;0.09;100.00;99107.53;10540993;28;20094;-68
2022/12/10 13:31:15;;;;;;;46.00;27.83;;;;;;;-0.19;100.00;99100.75;10519982;28;20036;-69
2022/12/10 13:36:34;;;;;;;51.20;29.05;;;;;;;-0.23;100.00;99096.47;10539971;28;20058;-69
2022/12/10 13:47:45;;;;;;;50.67;29.75;;;;;;;-0.17;100.00;99110.22;10547772;28;20405;-69
2022/12/10 13:53:11;;;;;;;44.90;28.38;;;;;;;-0.21;100.00;99113.69;10547066;28;20044;-69
2022/12/10 13:58:22;;;;;;;46.05;28.17;;;;;;;-0.11;100.00;99120.53;10522292;22;20061;-69
2022/12/10 14:04:11;;;;;;;40.35;27.02;;;;;;;-0.18;100.00;99118.81;10405300;28;20045;-68
2022/12/10 14:09:22;;;;;;;44.38;27.88;;;;;;;-0.38;100.00;99120.59;10296518;28;20051;-68
2022/12/10 14:14:38;;;;;;;43.83;28.40;;;;;;;-0.41;100.00;99125.78;10295208;28;20059;-68
2022/12/10 14:19:42;;;;;;;45.72;27.83;;;;;;;-0.33;100.00;99129.19;10296620;28;20051;-66
2022/12/10 14:24:44;;;;;;;37.05;27.17;;;;;;;-0.32;100.00;99134.34;10280972;28;20120;-70
2022/12/10 14:29:52;;;;;;;38.17;27.15;;;;;;;-0.34;100.00;99142.97;10296867;28;20123;-68
2022/12/10 14:34:56;;;;;;;40.40;27.67;;;;;;;-0.34;100.00;99137.81;10296217;28;20094;-69
2022/12/10 14:39:58;;;;;;;40.67;26.95;;;;;;;-0.35;100.00;99149.00;10315976;28;20408;-69
2022/12/10 14:45:04;;;;;;;43.65;27.52;;;;;;;-0.41;100.00;99144.69;10421627;28;20056;-68
2022/12/10 14:50:11;;;;;;;37.70;26.60;;;;;;;-0.51;100.00;99155.91;10421244;28;20038;-69
2022/12/10 14:55:15;;;;;;;42.90;27.55;;;;;;;-0.45;100.00;99161.06;10422896;28;20045;-68
2022/12/10 15:00:20;;;;;;;39.45;26.67;;;;;;;-0.39;100.00;99150.75;10422261;28;20491;-68
2022/12/10 15:05:28;;;;;;;38.40;28.45;;;;;;;-0.41;100.00;99157.63;10387900;28;20132;-68
2022/12/10 15:10:43;;;;;;;47.78;28.90;;;;;;;-0.50;100.00;99147.31;10421645;28;20045;-68
2022/12/10 15:15:49;;;;;;;47.35;29.55;;;;;;;-0.57;100.00;99150.78;10387553;28;20148;-68
2022/12/10 15:20:53;;;;;;;43.72;29.77;;;;;;;-0.46;100.00;99158.50;10421944;28;20046;-68
2022/12/10 15:26:47;;;;;;;43.55;28.58;;;;;;;-0.32;100.00;99159.31;10421645;28;20045;-70
2022/12/10 15:32:17;;;;;;;45.40;29.60;;;;;;;-0.39;100.00;99155.91;10446589;23;20060;-68
2022/12/10 15:37:23;;;;;;;;;;;;;;;-0.43;100.00;99164.50;10380311;28;20053;-68
2022/12/10 15:42:32;;;;;;;53.22;31.00;;;;;;;-0.30;100.00;99166.22;10380797;28;20363;-68
2022/12/10 15:47:37;;;;;;;51.63;30.33;;;;;;;-0.45;100.00;99175.69;10379482;28;20049;-68
2022/12/10 15:52:39;;;;;;;54.92;32.60;;;;;;;-0.53;100.00;99186.91;10379464;28;20109;-68
2022/12/10 15:57:48;;;;;;;57.75;33.58;;;;;;;-0.51;100.00;99195.50;10378432;28;20048;-69
2022/12/10 16:02:55;;;;;;;56.80;33.00;;;;;;;-0.47;100.00;99190.34;10377787;28;20487;-71
2022/12/10 16:08:01;;;;;;;57.42;33.83;;;;;;;-0.47;100.00;99198.94;10377545;28;20053;-69
2022/12/10 16:13:06;;;;;;;55.87;33.30;;;;;;;-0.49;100.00;99200.66;10377732;28;20042;-69
2022/12/10 16:18:10;;;;;;;58.83;32.67;;;;;;;-0.37;100.00;99210.13;10378534;28;20064;-68
2022/12/10 16:23:14;;;;;;;65.45;33.63;;;;;;;-0.53;100.00;99217.88;10377249;28;20045;-69
2022/12/10 16:28:18;;;;;;;67.68;36.58;;;;;;;-0.57;100.00;99217.88;10375246;28;20137;-69
2022/12/10 16:33:22;;;;;;;71.38;36.60;;;;;;;-0.56;100.00;99219.59;10376787;28;20050;-68
2022/12/10 16:38:25;;;;;;;67.72;35.55;;;;;;;-0.54;100.00;99221.28;10376748;28;20100;-68
2022/12/10 16:43:29;;;;;;;69.50;36.30;;;;;;;-0.60;100.00;99221.31;10378582;28;20045;-69
2022/12/10 16:48:30;;;;;;;74.25;36.60;;;;;;;-0.58;100.00;99219.56;10374923;28;20452;-68
2022/12/10 16:53:35;;;;;;;75.13;37.50;;;;;;;-0.48;100.00;99232.50;10375581;28;20495;-68
2022/12/10 16:58:37;;;;;;;77.78;38.78;;;;;;;-0.68;100.00;99227.31;10374335;28;20049;-69
2022/12/10 17:03:39;;;;;;;73.50;38.30;;;;;;;-0.77;100.00;99239.38;10375467;28;20050;-69
2022/12/10 17:08:41;;;;;;;75.80;38.42;;;;;;;-0.83;100.00;99229.03;10376031;28;20053;-69
2022/12/10 17:13:44;;;;;;;74.32;37.58;;;;;;;-0.85;100.00;99230.75;10373356;28;20414;-69
2022/12/10 17:18:46;;;;;;;74.43;38.10;;;;;;;-0.68;100.00;99227.31;10375404;28;20068;-69
2022/12/10 17:23:48;;;;;;;80.38;40.22;;;;;;;-0.74;100.00;99225.63;10375890;28;20506;-70
2022/12/10 17:28:51;;;;;;;80.05;41.22;;;;;;;-0.81;100.00;99229.91;10375174;28;20034;-70
2022/12/10 17:33:52;;;;;;;79.07;39.28;;;;;;;-0.84;100.00;99234.19;10375946;28;20049;-70
2022/12/10 17:38:54;;;;;;;78.97;39.53;;;;;;;-0.87;100.00;99232.47;10375271;28;20042;-69
2022/12/10 17:43:56;;;;;;;77.40;38.88;;;;;;;-0.84;100.00;99226.44;10373969;28;20046;-69
2022/12/10 17:48:58;;;;;;;78.85;37.65;;;;;;;-0.83;100.00;99229.03;10375306;28;20042;-68
2022/12/10 17:54:00;;;;;;;69.10;37.40;;;;;;;-0.82;100.00;99230.75;10375312;28;20042;-69
2022/12/10 17:59:02;;;;;;;75.03;38.63;;;;;;;-0.79;100.00;99237.66;10375316;28;20038;-69
2022/12/10 18:04:04;;;;;;;77.75;39.88;;;;;;;-0.71;100.00;99242.81;10374864;28;20104;-70
2022/12/10 18:09:06;;;;;;;79.53;39.38;;;;;;;-0.85;100.00;99243.66;10373290;28;20514;-69
2022/12/10 18:14:08;;;;;;;83.93;40.22;;;;;;;-0.58;100.00;99232.47;10375494;28;20045;-69
2022/12/10 18:19:14;;;;;;;84.45;41.33;;;;;;;-0.69;100.00;99247.13;10375906;28;20068;-69
2022/12/10 18:24:16;;;;;;;79.40;41.47;;;;;;;-0.77;100.00;99248.81;10376069;28;20038;-70
2022/12/10 18:29:17;;;;;;;84.28;41.05;;;;;;;-0.60;100.00;99246.25;10381829;28;20120;-69
2022/12/10 18:34:19;;;;;;;72.72;37.75;;;;;;;-0.50;100.00;99247.97;10382341;28;20057;-70
2022/12/10 18:39:24;;;;;;;79.00;40.35;;;;;;;-0.71;100.00;99248.81;10381236;28;20038;-69
2022/12/10 18:44:28;;;;;;;85.47;42.03;;;;;;;-0.76;100.00;99256.56;10381724;28;20053;-70
2022/12/10 18:49:31;;;;;;;79.93;40.03;;;;;;;-0.63;100.00;99238.50;10380565;28;20415;-70
2022/12/10 18:54:33;;;;;;;77.00;39.20;;;;;;;-0.81;100.00;99249.69;10382138;28;20403;-70
2022/12/10 18:59:34;;;;;;;81.72;40.53;;;;;;;-0.77;100.00;99251.41;10381491;28;20093;-70
2022/12/10 19:04:37;;;;;;;77.55;40.33;;;;;;;-0.70;100.00;99242.81;10381660;28;20412;-69
2022/12/10 19:09:39;;;;;;;82.22;41.28;;;;;;;-0.61;100.00;99240.25;10381507;28;20096;-70
2022/12/10 19:14:40;;;;;;;84.00;41.45;;;;;;;-0.70;100.00;99241.97;10380085;28;20046;-71
2022/12/10 19:19:42;;;;;;;87.05;42.13;;;;;;;-0.75;100.00;99247.13;10379455;28;20041;-70
2022/12/10 19:24:47;;;;;;;78.13;38.78;;;;;;;-0.84;100.00;99260.88;10379370;28;20050;-72
2022/12/10 19:29:48;;;;;;;80.88;40.88;;;;;;;-0.88;100.00;99260.88;10381644;28;20038;-70
2022/12/10 19:34:50;;;;;;;78.15;40.10;;;;;;;-0.95;100.00;99265.13;10379777;28;20042;-71
2022/12/10 19:39:52;;;;;;;83.40;41.58;;;;;;;-1.02;100.00;99260.81;10379699;28;20048;-69
2022/12/10 19:44:54;;;;;;;77.05;40.03;;;;;;;-1.05;100.00;99259.09;10378612;28;20054;-70
2022/12/10 19:49:55;;;;;;;78.53;39.25;;;;;;;-0.79;100.00;99268.63;10379732;28;20048;-70
2022/12/10 19:54:57;;;;;;;72.65;37.40;;;;;;;-0.83;100.00;99279.78;10379592;28;20042;-68
2022/12/10 19:59:59;;;;;;;67.97;36.15;;;;;;;-0.93;100.00;99296.09;10417609;23;20060;-72
2022/12/10 20:05:01;;;;;;;67.13;33.83;;;;;;;-0.86;100.00;99285.78;10404831;28;20076;-71
2022/12/10 20:10:03;;;;;;;62.75;33.90;;;;;;;-0.97;100.00;99291.78;10403845;28;20399;-71
2022/12/10 20:15:07;;;;;;;63.28;33.42;;;;;;;-0.94;100.00;99281.47;10402859;28;20506;-71
2022/12/10 20:20:17;;;;;;;68.40;35.10;;;;;;;-0.95;100.00;99277.19;10403503;28;20065;-71
2022/12/10 20:25:22;;;;;;;66.43;35.83;;;;;;;-0.94;100.00;99279.75;10421196;28;20091;-71
2022/12/10 20:30:27;;;;;;;72.40;36.47;;;;;;;-0.96;100.00;99273.75;10420506;28;20037;-73
2022/12/10 20:35:30;;;;;;;68.95;35.80;;;;;;;-0.98;100.00;99278.03;10419918;28;20402;-71
2022/12/10 20:40:32;;;;;;;61.38;34.70;;;;;;;-0.98;100.00;99275.44;10420950;28;20049;-71
2022/12/10 20:45:34;;;;;;;69.47;36.78;;;;;;;-1.09;100.00;99284.88;10419503;28;20045;-72
2022/12/10 20:50:36;;;;;;;57.80;34.17;;;;;;;-1.20;100.00;99282.25;10417990;28;20120;-72
2022/12/10 20:55:38;;;;;;;58.28;34.30;;;;;;;-1.10;100.00;99290.91;10418268;28;20045;-71
2022/12/10 21:00:40;;;;;;;52.30;31.40;;;;;;;-0.99;100.00;99296.09;10401017;28;20047;-72
2022/12/10 21:05:42;;;;;;;66.13;32.80;;;;;;;-1.28;100.00;99299.44;10400215;28;20053;-73
2022/12/10 21:10:55;;;;;;;57.83;32.92;;;;;;;-1.10;100.00;99296.91;10417900;28;20037;-72
2022/12/10 21:16:00;;;;;;;54.35;31.30;;;;;;;-1.11;100.00;99291.75;10418195;28;20069;-71
2022/12/10 21:21:03;;;;;;;55.15;32.75;;;;;;;-1.14;100.00;99289.16;10418305;28;20418;-72
2022/12/10 21:26:05;;;;;;;57.00;33.47;;;;;;;-1.34;100.00;99294.25;10385536;28;20128;-71
2022/12/10 21:31:15;;;;;;;51.83;31.17;;;;;;;-1.32;100.00;99298.56;10416687;28;20041;-71
2022/12/10 21:36:19;;;;;;;59.80;33.58;;;;;;;-1.30;100.00;99289.09;10418172;28;20069;-71
2022/12/10 21:46:43;;;;;;;64.70;36.70;;;;;;;-1.30;100.00;99283.09;10400226;28;20045;-71
2022/12/10 21:51:48;;;;;;;65.40;35.72;;;;;;;-1.34;100.00;99283.94;10417783;28;20574;-71
2022/12/10 21:56:50;;;;;;;65.22;35.40;;;;;;;-1.42;100.00;99286.47;10418401;28;20041;-71
2022/12/10 22:01:55;;;;;;;52.35;31.05;;;;;;;-1.34;100.00;99276.19;10387310;28;20125;-72
2022/12/10 22:06:57;;;;;;;56.13;33.03;;;;;;;-1.47;100.00;99282.16;10380804;28;20034;-72
2022/12/10 22:11:59;;;;;;;54.45;29.38;;;;;;;-1.39;100.00;99283.91;10381306;28;20076;-72
2022/12/10 22:17:02;;;;;;;47.05;30.08;;;;;;;-1.41;100.00;99292.50;10385015;28;20049;-72
2022/12/10 22:22:04;;;;;;;54.08;30.85;;;;;;;-1.39;100.00;99286.47;10386316;28;20049;-71
2022/12/10 22:27:05;;;;;;;45.55;28.80;;;;;;;-1.54;100.00;99289.00;10385699;28;20454;-72
2022/12/10 22:32:07;;;;;;;53.40;29.40;;;;;;;-1.52;100.00;99290.72;10384747;28;20038;-72
2022/12/10 22:37:09;;;;;;;51.88;31.92;;;;;;;-1.52;100.00;99285.56;10382884;28;20045;-72
2022/12/10 22:42:11;;;;;;;58.75;31.45;;;;;;;-1.53;100.00;99288.16;10383742;28;20034;-72
2022/12/10 22:47:12;;;;;;;46.50;29.35;;;;;;;-1.54;100.00;99292.44;10367415;28;20100;-72
2022/12/10 22:52:15;;;;;;;42.65;28.10;;;;;;;-1.49;100.00;99296.75;10369028;28;20044;-73
2022/12/10 22:57:17;;;;;;;52.10;29.58;;;;;;;-1.49;100.00;99291.59;10384550;28;20128;-72
2022/12/10 23:02:19;;;;;;;46.40;28.55;;;;;;;-1.45;100.00;99295.91;10384317;28;20094;-71
2022/12/10 23:07:21;;;;;;;47.13;28.05;;;;;;;-1.53;100.00;99283.00;10365900;28;20108;-72
2022/12/10 23:17:43;;;;;;;51.17;28.50;;;;;;;-1.57;100.00;99294.13;10383019;28;20077;-72
2022/12/10 23:22:45;;;;;;;46.88;28.70;;;;;;;-1.59;100.00;99286.41;10364494;28;20070;-72
2022/12/10 23:27:47;;;;;;;50.88;28.80;;;;;;;-1.60;100.00;99282.09;10381292;28;20044;-71
2022/12/10 23:32:49;;;;;;;43.28;28.70;;;;;;;-1.84;100.00;99287.97;10381434;28;20038;-72